sensor_id;sensor_type;location;lat;lon;timestamp;P1;durP1;ratioP1;P2;durP2;ratioP2
38037;SDS011;23843;51.320;12.340;2022-12-18T05:32:36;19.20;;;9.53;;
38037;SDS011;23843;51.320;12.340;2022-12-18T05:35:02;22.13;;;10.13;;
38037;SDS011;23843;51.320;12.340;2022-12-18T05:37:28;18.27;;;9.63;;
38037;SDS011;23843;51.320;12.340;2022-12-18T05:39:53;19.73;;;10.07;;
38037;SDS011;23843;51.320;12.340;2022-12-18T05:42:19;20.67;;;10.20;;
38037;SDS011;23843;51.320;12.340;2022-12-18T05:44:44;22.40;;;10.60;;
38037;SDS011;23843;51.320;12.340;2022-12-18T05:47:10;20.63;;;9.47;;
38037;SDS011;23843;51.320;12.340;2022-12-18T05:49:36;18.00;;;8.93;;
38037;SDS011;23843;51.320;12.340;2022-12-18T05:52:02;23.90;;;11.23;;
38037;SDS011;23843;51.320;12.340;2022-12-18T05:54:27;25.23;;;11.93;;
38037;SDS011;23843;51.320;12.340;2022-12-18T05:56:53;21.63;;;10.93;;
38037;SDS011;23843;51.320;12.340;2022-12-18T05:59:19;21.57;;;11.53;;
38037;SDS011;23843;51.320;12.340;2022-12-18T06:01:44;22.83;;;11.70;;
38037;SDS011;23843;51.320;12.340;2022-12-18T06:04:10;25.17;;;12.73;;
38037;SDS011;23843;51.320;12.340;2022-12-18T06:06:37;25.67;;;12.57;;
38037;SDS011;23843;51.320;12.340;2022-12-18T06:09:02;24.30;;;11.57;;
38037;SDS011;23843;51.320;12.340;2022-12-18T06:11:28;20.70;;;10.57;;
38037;SDS011;23843;51.320;12.340;2022-12-18T06:13:54;20.57;;;11.17;;
38037;SDS011;23843;51.320;12.340;2022-12-18T06:16:20;25.23;;;11.77;;
38037;SDS011;23843;51.320;12.340;2022-12-18T06:18:46;25.30;;;11.87;;
38037;SDS011;23843;51.320;12.340;2022-12-18T06:21:11;22.00;;;11.20;;
38037;SDS011;23843;51.320;12.340;2022-12-18T06:23:38;20.77;;;11.07;;
38037;SDS011;23843;51.320;12.340;2022-12-18T06:26:04;21.63;;;11.30;;
38037;SDS011;23843;51.320;12.340;2022-12-18T06:28:30;24.00;;;11.83;;
38037;SDS011;23843;51.320;12.340;2022-12-18T06:30:56;25.07;;;11.97;;
38037;SDS011;23843;51.320;12.340;2022-12-18T06:33:21;25.23;;;11.27;;
38037;SDS011;23843;51.320;12.340;2022-12-18T06:35:47;17.03;;;9.20;;
38037;SDS011;23843;51.320;12.340;2022-12-18T06:38:12;17.27;;;8.80;;
38037;SDS011;23843;51.320;12.340;2022-12-18T06:40:39;15.43;;;8.23;;
38037;SDS011;23843;51.320;12.340;2022-12-18T06:43:04;19.53;;;9.57;;
38037;SDS011;23843;51.320;12.340;2022-12-18T06:45:30;17.80;;;9.40;;
38037;SDS011;23843;51.320;12.340;2022-12-18T06:47:56;19.30;;;9.37;;
38037;SDS011;23843;51.320;12.340;2022-12-18T06:50:21;14.50;;;7.70;;
38037;SDS011;23843;51.320;12.340;2022-12-18T06:52:46;17.27;;;8.60;;
38037;SDS011;23843;51.320;12.340;2022-12-18T06:55:12;16.10;;;8.27;;
38037;SDS011;23843;51.320;12.340;2022-12-18T06:57:39;16.23;;;7.73;;
38037;SDS011;23843;51.320;12.340;2022-12-18T07:00:05;16.07;;;7.97;;
38037;SDS011;23843;51.320;12.340;2022-12-18T07:02:31;14.93;;;8.13;;
38037;SDS011;23843;51.320;12.340;2022-12-18T07:04:57;18.00;;;9.17;;
38037;SDS011;23843;51.320;12.340;2022-12-18T07:07:23;16.93;;;8.77;;
38037;SDS011;23843;51.320;12.340;2022-12-18T07:09:49;17.93;;;9.37;;
38037;SDS011;23843;51.320;12.340;2022-12-18T07:12:15;20.40;;;9.33;;
38037;SDS011;23843;51.320;12.340;2022-12-18T07:14:42;17.87;;;9.03;;
38037;SDS011;23843;51.320;12.340;2022-12-18T07:17:07;14.07;;;8.37;;
38037;SDS011;23843;51.320;12.340;2022-12-18T07:19:33;17.97;;;9.13;;
38037;SDS011;23843;51.320;12.340;2022-12-18T07:21:59;20.60;;;9.50;;
38037;SDS011;23843;51.320;12.340;2022-12-18T07:24:24;15.07;;;8.30;;
38037;SDS011;23843;51.320;12.340;2022-12-18T07:26:49;18.17;;;9.00;;
38037;SDS011;23843;51.320;12.340;2022-12-18T07:29:15;18.73;;;8.77;;
38037;SDS011;23843;51.320;12.340;2022-12-18T07:31:42;17.27;;;8.23;;
38037;SDS011;23843;51.320;12.340;2022-12-18T07:34:09;15.20;;;7.63;;
38037;SDS011;23843;51.320;12.340;2022-12-18T07:36:35;16.27;;;8.07;;
38037;SDS011;23843;51.320;12.340;2022-12-18T07:39:01;13.57;;;7.07;;
38037;SDS011;23843;51.320;12.340;2022-12-18T07:41:26;12.57;;;6.80;;
38037;SDS011;23843;51.320;12.340;2022-12-18T07:43:51;11.87;;;6.90;;
38037;SDS011;23843;51.320;12.340;2022-12-18T07:46:17;12.87;;;7.77;;
38037;SDS011;23843;51.320;12.340;2022-12-18T07:48:44;14.23;;;7.57;;
38037;SDS011;23843;51.320;12.340;2022-12-18T07:51:13;14.73;;;7.90;;
38037;SDS011;23843;51.320;12.340;2022-12-18T07:53:39;11.77;;;6.53;;
38037;SDS011;23843;51.320;12.340;2022-12-18T07:56:05;14.10;;;7.90;;
38037;SDS011;23843;51.320;12.340;2022-12-18T07:58:32;16.73;;;8.73;;
38037;SDS011;23843;51.320;12.340;2022-12-18T08:01:01;16.23;;;8.10;;
38037;SDS011;23843;51.320;12.340;2022-12-18T08:03:28;14.03;;;7.20;;
38037;SDS011;23843;51.320;12.340;2022-12-18T08:05:59;14.60;;;7.20;;
38037;SDS011;23843;51.320;12.340;2022-12-18T08:08:25;16.40;;;8.80;;
38037;SDS011;23843;51.320;12.340;2022-12-18T08:10:50;13.10;;;7.23;;
38037;SDS011;23843;51.320;12.340;2022-12-18T08:13:16;13.83;;;7.23;;
38037;SDS011;23843;51.320;12.340;2022-12-18T08:15:41;17.23;;;8.97;;
38037;SDS011;23843;51.320;12.340;2022-12-18T08:18:06;14.83;;;8.10;;
38037;SDS011;23843;51.320;12.340;2022-12-18T08:20:32;16.50;;;8.57;;
38037;SDS011;23843;51.320;12.340;2022-12-18T08:22:59;17.03;;;8.73;;
38037;SDS011;23843;51.320;12.340;2022-12-18T08:25:24;16.90;;;8.70;;
38037;SDS011;23843;51.320;12.340;2022-12-18T08:27:49;15.33;;;8.60;;
38037;SDS011;23843;51.320;12.340;2022-12-18T08:30:15;12.03;;;7.90;;
38037;SDS011;23843;51.320;12.340;2022-12-18T08:32:40;16.17;;;8.27;;
38037;SDS011;23843;51.320;12.340;2022-12-18T08:35:06;11.63;;;7.23;;
38037;SDS011;23843;51.320;12.340;2022-12-18T08:37:32;11.63;;;7.20;;
38037;SDS011;23843;51.320;12.340;2022-12-18T08:39:59;15.70;;;8.37;;
38037;SDS011;23843;51.320;12.340;2022-12-18T08:42:24;14.57;;;7.63;;
38037;SDS011;23843;51.320;12.340;2022-12-18T08:44:50;12.27;;;6.93;;
38037;SDS011;23843;51.320;12.340;2022-12-18T08:47:15;13.23;;;7.57;;
38037;SDS011;23843;51.320;12.340;2022-12-18T08:49:40;12.17;;;7.50;;
38037;SDS011;23843;51.320;12.340;2022-12-18T08:52:06;12.33;;;6.70;;
38037;SDS011;23843;51.320;12.340;2022-12-18T08:54:31;9.93;;;6.03;;
38037;SDS011;23843;51.320;12.340;2022-12-18T08:56:58;12.17;;;7.07;;
38037;SDS011;23843;51.320;12.340;2022-12-18T08:59:24;14.47;;;7.87;;
38037;SDS011;23843;51.320;12.340;2022-12-18T09:01:49;11.50;;;6.40;;
38037;SDS011;23843;51.320;12.340;2022-12-18T09:04:15;10.80;;;6.30;;
38037;SDS011;23843;51.320;12.340;2022-12-18T09:06:40;11.70;;;7.07;;
38037;SDS011;23843;51.320;12.340;2022-12-18T09:09:06;8.27;;;5.00;;
38037;SDS011;23843;51.320;12.340;2022-12-18T09:11:33;7.60;;;4.60;;
38037;SDS011;23843;51.320;12.340;2022-12-18T09:14:00;11.17;;;5.97;;
38037;SDS011;23843;51.320;12.340;2022-12-18T09:16:26;8.53;;;5.40;;
38037;SDS011;23843;51.320;12.340;2022-12-18T09:18:52;10.97;;;6.20;;
38037;SDS011;23843;51.320;12.340;2022-12-18T09:21:19;7.80;;;5.17;;
38037;SDS011;23843;51.320;12.340;2022-12-18T09:23:48;9.07;;;5.80;;
38037;SDS011;23843;51.320;12.340;2022-12-18T09:26:14;11.30;;;6.37;;
38037;SDS011;23843;51.320;12.340;2022-12-18T09:28:39;10.67;;;6.40;;
38037;SDS011;23843;51.320;12.340;2022-12-18T09:31:08;17.27;;;8.33;;
38037;SDS011;23843;51.320;12.340;2022-12-18T09:33:35;15.17;;;8.33;;
38037;SDS011;23843;51.320;12.340;2022-12-18T09:36:01;14.07;;;6.90;;
38037;SDS011;23843;51.320;12.340;2022-12-18T09:38:28;15.50;;;7.03;;
38037;SDS011;23843;51.320;12.340;2022-12-18T09:40:55;11.90;;;7.00;;
38037;SDS011;23843;51.320;12.340;2022-12-18T09:43:26;13.13;;;7.60;;
38037;SDS011;23843;51.320;12.340;2022-12-18T09:45:56;13.17;;;6.97;;
38037;SDS011;23843;51.320;12.340;2022-12-18T09:48:28;13.80;;;7.63;;
38037;SDS011;23843;51.320;12.340;2022-12-18T09:50:57;13.30;;;7.10;;
38037;SDS011;23843;51.320;12.340;2022-12-18T09:53:27;11.80;;;7.25;;
38037;SDS011;23843;51.320;12.340;2022-12-18T09:55:57;11.73;;;7.03;;
38037;SDS011;23843;51.320;12.340;2022-12-18T09:58:26;11.33;;;6.43;;
38037;SDS011;23843;51.320;12.340;2022-12-18T10:00:55;10.70;;;6.20;;
38037;SDS011;23843;51.320;12.340;2022-12-18T10:03:21;12.97;;;7.57;;
38037;SDS011;23843;51.320;12.340;2022-12-18T10:05:50;13.90;;;7.77;;
38037;SDS011;23843;51.320;12.340;2022-12-18T10:08:24;10.47;;;6.80;;
38037;SDS011;23843;51.320;12.340;2022-12-18T10:10:59;10.50;;;6.27;;
38037;SDS011;23843;51.320;12.340;2022-12-18T10:13:38;10.43;;;6.10;;
38037;SDS011;23843;51.320;12.340;2022-12-18T10:16:09;10.50;;;6.33;;
38037;SDS011;23843;51.320;12.340;2022-12-18T10:18:42;10.03;;;6.27;;
38037;SDS011;23843;51.320;12.340;2022-12-18T10:21:26;10.33;;;6.80;;
38037;SDS011;23843;51.320;12.340;2022-12-18T10:23:58;10.37;;;6.10;;
38037;SDS011;23843;51.320;12.340;2022-12-18T10:26:34;9.27;;;5.97;;
38037;SDS011;23843;51.320;12.340;2022-12-18T10:29:00;10.90;;;6.60;;
38037;SDS011;23843;51.320;12.340;2022-12-18T10:31:26;11.33;;;7.00;;
38037;SDS011;23843;51.320;12.340;2022-12-18T10:33:53;10.37;;;5.30;;
38037;SDS011;23843;51.320;12.340;2022-12-18T10:36:19;10.97;;;6.17;;
38037;SDS011;23843;51.320;12.340;2022-12-18T10:38:46;8.67;;;5.77;;
38037;SDS011;23843;51.320;12.340;2022-12-18T10:41:23;8.57;;;5.30;;
38037;SDS011;23843;51.320;12.340;2022-12-18T10:43:51;9.70;;;5.27;;
38037;SDS011;23843;51.320;12.340;2022-12-18T10:46:36;7.40;;;4.00;;
38037;SDS011;23843;51.320;12.340;2022-12-18T10:49:02;5.93;;;3.83;;
38037;SDS011;23843;51.320;12.340;2022-12-18T10:51:28;7.93;;;5.13;;
38037;SDS011;23843;51.320;12.340;2022-12-18T10:53:57;8.27;;;4.93;;
38037;SDS011;23843;51.320;12.340;2022-12-18T10:56:26;9.07;;;5.77;;
38037;SDS011;23843;51.320;12.340;2022-12-18T10:58:57;9.17;;;5.77;;
38037;SDS011;23843;51.320;12.340;2022-12-18T11:01:25;9.97;;;5.87;;
38037;SDS011;23843;51.320;12.340;2022-12-18T11:03:58;7.73;;;4.73;;
38037;SDS011;23843;51.320;12.340;2022-12-18T11:06:25;8.50;;;5.60;;
38037;SDS011;23843;51.320;12.340;2022-12-18T11:08:58;7.57;;;5.30;;
38037;SDS011;23843;51.320;12.340;2022-12-18T11:11:25;8.33;;;5.13;;
38037;SDS011;23843;51.320;12.340;2022-12-18T11:13:54;8.73;;;4.67;;
38037;SDS011;23843;51.320;12.340;2022-12-18T11:16:25;6.70;;;4.73;;
38037;SDS011;23843;51.320;12.340;2022-12-18T11:18:52;7.43;;;4.70;;
38037;SDS011;23843;51.320;12.340;2022-12-18T11:21:18;8.20;;;5.03;;
38037;SDS011;23843;51.320;12.340;2022-12-18T11:23:46;9.13;;;5.40;;
38037;SDS011;23843;51.320;12.340;2022-12-18T11:26:15;6.40;;;4.30;;
38037;SDS011;23843;51.320;12.340;2022-12-18T11:28:41;6.17;;;4.07;;
38037;SDS011;23843;51.320;12.340;2022-12-18T11:31:24;7.30;;;4.50;;
38037;SDS011;23843;51.320;12.340;2022-12-18T11:33:53;5.87;;;4.13;;
38037;SDS011;23843;51.320;12.340;2022-12-18T11:36:33;6.37;;;4.07;;
38037;SDS011;23843;51.320;12.340;2022-12-18T11:39:07;8.10;;;4.60;;
38037;SDS011;23843;51.320;12.340;2022-12-18T11:41:43;7.27;;;4.20;;
38037;SDS011;23843;51.320;12.340;2022-12-18T11:44:14;6.63;;;3.90;;
38037;SDS011;23843;51.320;12.340;2022-12-18T11:46:48;6.57;;;4.17;;
38037;SDS011;23843;51.320;12.340;2022-12-18T11:49:20;6.10;;;4.30;;
38037;SDS011;23843;51.320;12.340;2022-12-18T11:51:50;6.40;;;3.70;;
38037;SDS011;23843;51.320;12.340;2022-12-18T11:54:20;5.47;;;2.90;;
38037;SDS011;23843;51.320;12.340;2022-12-18T11:56:48;6.90;;;4.50;;
38037;SDS011;23843;51.320;12.340;2022-12-18T11:59:17;10.97;;;5.30;;
38037;SDS011;23843;51.320;12.340;2022-12-18T12:01:54;9.73;;;5.73;;
38037;SDS011;23843;51.320;12.340;2022-12-18T12:04:32;9.33;;;5.70;;
38037;SDS011;23843;51.320;12.340;2022-12-18T12:07:17;8.90;;;5.63;;
38037;SDS011;23843;51.320;12.340;2022-12-18T12:09:52;7.77;;;4.50;;
38037;SDS011;23843;51.320;12.340;2022-12-18T12:12:30;8.60;;;5.03;;
38037;SDS011;23843;51.320;12.340;2022-12-18T12:15:04;9.47;;;5.37;;
38037;SDS011;23843;51.320;12.340;2022-12-18T12:17:38;10.03;;;5.90;;
38037;SDS011;23843;51.320;12.340;2022-12-18T12:20:14;12.47;;;7.03;;
38037;SDS011;23843;51.320;12.340;2022-12-18T12:22:46;10.83;;;6.10;;
38037;SDS011;23843;51.320;12.340;2022-12-18T12:25:23;9.33;;;5.83;;
38037;SDS011;23843;51.320;12.340;2022-12-18T12:28:00;11.70;;;7.07;;
38037;SDS011;23843;51.320;12.340;2022-12-18T12:30:39;15.20;;;8.43;;
38037;SDS011;23843;51.320;12.340;2022-12-18T12:33:18;15.13;;;8.00;;
38037;SDS011;23843;51.320;12.340;2022-12-18T12:35:58;12.80;;;7.73;;
38037;SDS011;23843;51.320;12.340;2022-12-18T12:38:34;15.60;;;8.30;;
38037;SDS011;23843;51.320;12.340;2022-12-18T12:41:03;14.70;;;8.00;;
38037;SDS011;23843;51.320;12.340;2022-12-18T12:43:37;14.67;;;7.63;;
38037;SDS011;23843;51.320;12.340;2022-12-18T12:46:09;11.37;;;6.80;;
38037;SDS011;23843;51.320;12.340;2022-12-18T12:48:40;10.53;;;6.40;;
38037;SDS011;23843;51.320;12.340;2022-12-18T12:51:10;14.57;;;7.83;;
38037;SDS011;23843;51.320;12.340;2022-12-18T12:53:46;12.33;;;6.73;;
38037;SDS011;23843;51.320;12.340;2022-12-18T12:56:13;9.70;;;5.97;;
38037;SDS011;23843;51.320;12.340;2022-12-18T12:58:44;12.43;;;6.70;;
38037;SDS011;23843;51.320;12.340;2022-12-18T13:01:18;13.43;;;7.90;;
38037;SDS011;23843;51.320;12.340;2022-12-18T13:03:56;16.20;;;8.63;;
38037;SDS011;23843;51.320;12.340;2022-12-18T13:06:33;11.87;;;7.67;;
38037;SDS011;23843;51.320;12.340;2022-12-18T13:09:05;12.47;;;7.23;;
38037;SDS011;23843;51.320;12.340;2022-12-18T13:11:32;15.77;;;8.20;;
38037;SDS011;23843;51.320;12.340;2022-12-18T13:14:02;15.23;;;8.33;;
38037;SDS011;23843;51.320;12.340;2022-12-18T13:16:28;13.83;;;8.73;;
38037;SDS011;23843;51.320;12.340;2022-12-18T13:18:53;14.50;;;8.50;;
38037;SDS011;23843;51.320;12.340;2022-12-18T13:21:21;14.40;;;7.70;;
38037;SDS011;23843;51.320;12.340;2022-12-18T13:23:51;14.27;;;7.40;;
38037;SDS011;23843;51.320;12.340;2022-12-18T13:29:07;11.93;;;7.23;;
38037;SDS011;23843;51.320;12.340;2022-12-18T13:34:48;14.40;;;8.00;;
38037;SDS011;23843;51.320;12.340;2022-12-18T13:43:27;13.27;;;7.70;;
38037;SDS011;23843;51.320;12.340;2022-12-18T13:46:03;18.70;;;10.10;;
38037;SDS011;23843;51.320;12.340;2022-12-18T13:48:47;13.20;;;8.47;;
38037;SDS011;23843;51.320;12.340;2022-12-18T13:51:17;15.57;;;7.20;;
38037;SDS011;23843;51.320;12.340;2022-12-18T13:53:46;15.37;;;8.87;;
38037;SDS011;23843;51.320;12.340;2022-12-18T13:56:15;14.57;;;8.00;;
38037;SDS011;23843;51.320;12.340;2022-12-18T14:01:43;12.33;;;6.80;;
38037;SDS011;23843;51.320;12.340;2022-12-18T14:04:10;9.80;;;5.50;;
38037;SDS011;23843;51.320;12.340;2022-12-18T14:06:37;14.27;;;8.07;;
38037;SDS011;23843;51.320;12.340;2022-12-18T14:09:03;13.13;;;7.23;;
38037;SDS011;23843;51.320;12.340;2022-12-18T14:11:28;14.40;;;8.40;;
38037;SDS011;23843;51.320;12.340;2022-12-18T14:13:55;19.03;;;8.60;;
38037;SDS011;23843;51.320;12.340;2022-12-18T14:16:21;18.30;;;9.40;;
38037;SDS011;23843;51.320;12.340;2022-12-18T14:18:50;17.87;;;8.70;;
38037;SDS011;23843;51.320;12.340;2022-12-18T14:21:20;16.63;;;8.37;;
38037;SDS011;23843;51.320;12.340;2022-12-18T14:23:54;19.10;;;9.33;;
38037;SDS011;23843;51.320;12.340;2022-12-18T14:26:30;18.83;;;9.77;;
38037;SDS011;23843;51.320;12.340;2022-12-18T14:28:59;14.47;;;7.87;;
38037;SDS011;23843;51.320;12.340;2022-12-18T14:31:26;17.87;;;10.07;;
38037;SDS011;23843;51.320;12.340;2022-12-18T14:33:54;12.03;;;6.50;;
38037;SDS011;23843;51.320;12.340;2022-12-18T14:36:20;11.73;;;6.37;;
38037;SDS011;23843;51.320;12.340;2022-12-18T14:38:50;13.93;;;7.87;;
38037;SDS011;23843;51.320;12.340;2022-12-18T14:41:16;10.67;;;6.10;;
38037;SDS011;23843;51.320;12.340;2022-12-18T14:43:44;8.30;;;4.60;;
38037;SDS011;23843;51.320;12.340;2022-12-18T14:46:25;11.20;;;5.50;;
38037;SDS011;23843;51.320;12.340;2022-12-18T14:48:54;13.07;;;6.50;;
38037;SDS011;23843;51.320;12.340;2022-12-18T14:51:21;17.23;;;9.17;;
38037;SDS011;23843;51.320;12.340;2022-12-18T14:53:51;20.27;;;10.70;;
38037;SDS011;23843;51.320;12.340;2022-12-18T14:56:19;18.27;;;10.13;;
38037;SDS011;23843;51.320;12.340;2022-12-18T14:58:47;19.33;;;10.37;;
38037;SDS011;23843;51.320;12.340;2022-12-18T15:01:18;17.03;;;8.63;;
38037;SDS011;23843;51.320;12.340;2022-12-18T15:03:51;20.17;;;10.17;;
38037;SDS011;23843;51.320;12.340;2022-12-18T15:06:24;24.63;;;12.47;;
38037;SDS011;23843;51.320;12.340;2022-12-18T15:08:52;24.40;;;13.23;;
38037;SDS011;23843;51.320;12.340;2022-12-18T15:11:25;24.07;;;11.93;;
38037;SDS011;23843;51.320;12.340;2022-12-18T15:13:52;22.67;;;11.27;;
38037;SDS011;23843;51.320;12.340;2022-12-18T15:16:18;24.33;;;11.90;;
38037;SDS011;23843;51.320;12.340;2022-12-18T15:18:46;24.07;;;12.10;;
38037;SDS011;23843;51.320;12.340;2022-12-18T15:21:15;24.07;;;12.03;;
38037;SDS011;23843;51.320;12.340;2022-12-18T15:23:46;24.90;;;12.17;;
38037;SDS011;23843;51.320;12.340;2022-12-18T15:26:16;16.30;;;8.73;;
38037;SDS011;23843;51.320;12.340;2022-12-18T15:28:46;22.73;;;11.10;;
38037;SDS011;23843;51.320;12.340;2022-12-18T15:31:23;16.23;;;9.10;;
38037;SDS011;23843;51.320;12.340;2022-12-18T15:34:00;17.47;;;8.87;;
38037;SDS011;23843;51.320;12.340;2022-12-18T15:36:35;17.70;;;9.30;;
38037;SDS011;23843;51.320;12.340;2022-12-18T15:39:03;28.83;;;12.20;;
38037;SDS011;23843;51.320;12.340;2022-12-18T15:41:30;24.07;;;11.60;;
38037;SDS011;23843;51.320;12.340;2022-12-18T15:43:57;20.97;;;11.00;;
38037;SDS011;23843;51.320;12.340;2022-12-18T15:46:22;24.60;;;13.00;;
38037;SDS011;23843;51.320;12.340;2022-12-18T15:48:52;24.50;;;12.90;;
38037;SDS011;23843;51.320;12.340;2022-12-18T15:51:19;25.43;;;13.33;;
38037;SDS011;23843;51.320;12.340;2022-12-18T15:53:53;29.20;;;14.33;;
38037;SDS011;23843;51.320;12.340;2022-12-18T15:56:21;28.17;;;14.30;;
38037;SDS011;23843;51.320;12.340;2022-12-18T15:58:47;27.23;;;14.17;;
38037;SDS011;23843;51.320;12.340;2022-12-18T16:01:13;29.83;;;15.43;;
38037;SDS011;23843;51.320;12.340;2022-12-18T16:03:38;24.97;;;12.10;;
38037;SDS011;23843;51.320;12.340;2022-12-18T16:06:04;17.47;;;9.53;;
38037;SDS011;23843;51.320;12.340;2022-12-18T16:08:30;18.23;;;9.57;;
38037;SDS011;23843;51.320;12.340;2022-12-18T16:10:56;20.17;;;10.73;;
38037;SDS011;23843;51.320;12.340;2022-12-18T16:13:25;28.30;;;15.57;;
38037;SDS011;23843;51.320;12.340;2022-12-18T16:15:50;28.47;;;13.77;;
38037;SDS011;23843;51.320;12.340;2022-12-18T16:18:19;25.10;;;12.60;;
38037;SDS011;23843;51.320;12.340;2022-12-18T16:20:44;17.83;;;9.77;;
38037;SDS011;23843;51.320;12.340;2022-12-18T16:23:09;16.60;;;9.07;;
38037;SDS011;23843;51.320;12.340;2022-12-18T16:25:35;16.40;;;8.83;;
38037;SDS011;23843;51.320;12.340;2022-12-18T16:28:01;22.33;;;10.57;;
38037;SDS011;23843;51.320;12.340;2022-12-18T16:30:29;21.93;;;10.97;;
38037;SDS011;23843;51.320;12.340;2022-12-18T16:32:57;23.83;;;11.80;;
38037;SDS011;23843;51.320;12.340;2022-12-18T16:35:23;20.90;;;11.37;;
38037;SDS011;23843;51.320;12.340;2022-12-18T16:37:52;26.33;;;13.77;;
38037;SDS011;23843;51.320;12.340;2022-12-18T16:40:18;27.43;;;13.67;;
38037;SDS011;23843;51.320;12.340;2022-12-18T16:42:52;27.93;;;13.97;;
38037;SDS011;23843;51.320;12.340;2022-12-18T16:45:18;24.10;;;12.90;;
38037;SDS011;23843;51.320;12.340;2022-12-18T16:47:45;22.73;;;11.27;;
38037;SDS011;23843;51.320;12.340;2022-12-18T16:50:10;19.57;;;10.33;;
38037;SDS011;23843;51.320;12.340;2022-12-18T16:52:36;15.13;;;7.90;;
38037;SDS011;23843;51.320;12.340;2022-12-18T16:55:04;21.60;;;11.77;;
38037;SDS011;23843;51.320;12.340;2022-12-18T16:57:30;31.27;;;15.67;;
38037;SDS011;23843;51.320;12.340;2022-12-18T16:59:55;32.10;;;16.47;;
38037;SDS011;23843;51.320;12.340;2022-12-18T17:02:24;32.93;;;17.30;;
38037;SDS011;23843;51.320;12.340;2022-12-18T17:04:53;37.10;;;17.87;;
38037;SDS011;23843;51.320;12.340;2022-12-18T17:07:22;32.20;;;16.30;;
38037;SDS011;23843;51.320;12.340;2022-12-18T17:09:48;41.17;;;20.03;;
38037;SDS011;23843;51.320;12.340;2022-12-18T17:12:15;32.00;;;16.30;;
38037;SDS011;23843;51.320;12.340;2022-12-18T17:14:41;25.43;;;12.47;;
38037;SDS011;23843;51.320;12.340;2022-12-18T17:17:07;30.43;;;15.50;;
38037;SDS011;23843;51.320;12.340;2022-12-18T17:19:32;33.37;;;15.60;;
38037;SDS011;23843;51.320;12.340;2022-12-18T17:21:59;33.03;;;16.70;;
38037;SDS011;23843;51.320;12.340;2022-12-18T17:24:24;30.00;;;15.43;;
38037;SDS011;23843;51.320;12.340;2022-12-18T17:26:53;38.70;;;18.23;;
38037;SDS011;23843;51.320;12.340;2022-12-18T17:29:19;33.37;;;16.33;;
38037;SDS011;23843;51.320;12.340;2022-12-18T17:31:45;32.93;;;15.70;;
38037;SDS011;23843;51.320;12.340;2022-12-18T17:34:11;30.97;;;15.00;;
38037;SDS011;23843;51.320;12.340;2022-12-18T17:36:37;29.37;;;15.40;;
38037;SDS011;23843;51.320;12.340;2022-12-18T17:39:07;27.20;;;14.63;;
38037;SDS011;23843;51.320;12.340;2022-12-18T17:41:40;29.33;;;14.33;;
38037;SDS011;23843;51.320;12.340;2022-12-18T17:44:05;22.93;;;12.43;;
38037;SDS011;23843;51.320;12.340;2022-12-18T17:46:32;25.40;;;13.37;;
38037;SDS011;23843;51.320;12.340;2022-12-18T17:49:00;27.27;;;13.60;;
38037;SDS011;23843;51.320;12.340;2022-12-18T17:51:26;29.93;;;15.17;;
38037;SDS011;23843;51.320;12.340;2022-12-18T17:53:52;26.57;;;13.70;;
38037;SDS011;23843;51.320;12.340;2022-12-18T17:56:22;26.50;;;12.57;;
38037;SDS011;23843;51.320;12.340;2022-12-18T17:58:49;21.77;;;11.20;;
38037;SDS011;23843;51.320;12.340;2022-12-18T18:01:15;23.80;;;11.00;;
38037;SDS011;23843;51.320;12.340;2022-12-18T18:03:43;19.47;;;9.00;;
38037;SDS011;23843;51.320;12.340;2022-12-18T18:06:08;19.97;;;9.80;;
38037;SDS011;23843;51.320;12.340;2022-12-18T18:08:34;19.27;;;10.40;;
38037;SDS011;23843;51.320;12.340;2022-12-18T18:11:03;24.83;;;12.67;;
38037;SDS011;23843;51.320;12.340;2022-12-18T18:13:31;23.50;;;11.50;;
38037;SDS011;23843;51.320;12.340;2022-12-18T18:15:56;24.00;;;11.77;;
38037;SDS011;23843;51.320;12.340;2022-12-18T18:18:22;18.33;;;9.57;;
38037;SDS011;23843;51.320;12.340;2022-12-18T18:20:48;20.53;;;11.17;;
38037;SDS011;23843;51.320;12.340;2022-12-18T18:23:13;17.63;;;10.00;;
38037;SDS011;23843;51.320;12.340;2022-12-18T18:25:45;24.97;;;13.07;;
38037;SDS011;23843;51.320;12.340;2022-12-18T18:28:10;26.80;;;14.63;;
38037;SDS011;23843;51.320;12.340;2022-12-18T18:30:38;21.93;;;11.97;;
38037;SDS011;23843;51.320;12.340;2022-12-18T18:33:04;18.40;;;9.07;;
38037;SDS011;23843;51.320;12.340;2022-12-18T18:35:29;19.50;;;9.43;;
38037;SDS011;23843;51.320;12.340;2022-12-18T18:37:55;23.90;;;11.63;;
38037;SDS011;23843;51.320;12.340;2022-12-18T18:40:20;18.33;;;9.77;;
38037;SDS011;23843;51.320;12.340;2022-12-18T18:42:46;22.37;;;11.57;;
38037;SDS011;23843;51.320;12.340;2022-12-18T18:45:11;19.60;;;10.20;;
38037;SDS011;23843;51.320;12.340;2022-12-18T18:47:38;20.37;;;10.20;;
38037;SDS011;23843;51.320;12.340;2022-12-18T18:50:04;18.50;;;9.67;;
38037;SDS011;23843;51.320;12.340;2022-12-18T18:52:30;16.87;;;9.10;;
38037;SDS011;23843;51.320;12.340;2022-12-18T18:54:59;18.40;;;9.53;;
38037;SDS011;23843;51.320;12.340;2022-12-18T18:57:24;18.57;;;9.50;;
38037;SDS011;23843;51.320;12.340;2022-12-18T18:59:52;15.20;;;8.13;;
38037;SDS011;23843;51.320;12.340;2022-12-18T19:02:17;14.77;;;8.07;;
38037;SDS011;23843;51.320;12.340;2022-12-18T19:04:44;14.40;;;7.87;;
38037;SDS011;23843;51.320;12.340;2022-12-18T19:07:10;14.27;;;7.93;;
38037;SDS011;23843;51.320;12.340;2022-12-18T19:09:35;15.53;;;8.17;;
38037;SDS011;23843;51.320;12.340;2022-12-18T19:12:01;18.90;;;10.40;;
38037;SDS011;23843;51.320;12.340;2022-12-18T19:14:26;20.83;;;11.27;;
38037;SDS011;23843;51.320;12.340;2022-12-18T19:16:52;21.83;;;11.30;;
38037;SDS011;23843;51.320;12.340;2022-12-18T19:19:17;20.67;;;10.57;;
38037;SDS011;23843;51.320;12.340;2022-12-18T19:21:44;18.60;;;9.70;;
38037;SDS011;23843;51.320;12.340;2022-12-18T19:24:10;17.10;;;9.37;;
38037;SDS011;23843;51.320;12.340;2022-12-18T19:26:36;20.57;;;11.03;;
38037;SDS011;23843;51.320;12.340;2022-12-18T19:29:04;18.30;;;9.90;;
38037;SDS011;23843;51.320;12.340;2022-12-18T19:31:33;17.10;;;8.67;;
38037;SDS011;23843;51.320;12.340;2022-12-18T19:33:59;23.10;;;10.73;;
38037;SDS011;23843;51.320;12.340;2022-12-18T19:36:25;26.33;;;13.33;;
38037;SDS011;23843;51.320;12.340;2022-12-18T19:38:55;29.67;;;13.60;;
38037;SDS011;23843;51.320;12.340;2022-12-18T19:41:25;25.83;;;12.80;;
38037;SDS011;23843;51.320;12.340;2022-12-18T19:43:53;23.57;;;11.30;;
38037;SDS011;23843;51.320;12.340;2022-12-18T19:46:20;20.47;;;10.03;;
38037;SDS011;23843;51.320;12.340;2022-12-18T19:48:46;17.63;;;8.00;;
38037;SDS011;23843;51.320;12.340;2022-12-18T19:51:13;27.27;;;11.33;;
38037;SDS011;23843;51.320;12.340;2022-12-18T19:53:40;30.50;;;12.77;;
38037;SDS011;23843;51.320;12.340;2022-12-18T19:56:10;28.13;;;11.73;;
38037;SDS011;23843;51.320;12.340;2022-12-18T19:58:37;19.43;;;9.10;;
38037;SDS011;23843;51.320;12.340;2022-12-18T20:01:03;14.37;;;6.97;;
38037;SDS011;23843;51.320;12.340;2022-12-18T20:03:29;15.40;;;7.47;;
38037;SDS011;23843;51.320;12.340;2022-12-18T20:05:54;18.70;;;8.67;;
38037;SDS011;23843;51.320;12.340;2022-12-18T20:08:20;16.70;;;8.47;;
38037;SDS011;23843;51.320;12.340;2022-12-18T20:10:46;16.17;;;7.97;;